sensor_id;sensor_type;location;lat;lon;timestamp;P1;durP1;ratioP1;P2;durP2;ratioP2
38379;SDS011;38377;47.418;18.882;2023-07-20T00:01:25;9.88;;;3.67;;
38379;SDS011;38377;47.418;18.882;2023-07-20T00:03:51;6.15;;;4.22;;
38379;SDS011;38377;47.418;18.882;2023-07-20T00:06:20;6.20;;;3.83;;
38379;SDS011;38377;47.418;18.882;2023-07-20T00:08:50;5.68;;;3.80;;
38379;SDS011;38377;47.418;18.882;2023-07-20T00:11:16;9.93;;;3.75;;
38379;SDS011;38377;47.418;18.882;2023-07-20T00:13:41;5.63;;;3.45;;
38379;SDS011;38377;47.418;18.882;2023-07-20T00:16:07;7.32;;;3.58;;
38379;SDS011;38377;47.418;18.882;2023-07-20T00:18:33;7.47;;;4.03;;
38379;SDS011;38377;47.418;18.882;2023-07-20T00:20:58;10.52;;;2.92;;
38379;SDS011;38377;47.418;18.882;2023-07-20T00:23:27;5.68;;;2.90;;
38379;SDS011;38377;47.418;18.882;2023-07-20T00:25:53;7.50;;;3.80;;
38379;SDS011;38377;47.418;18.882;2023-07-20T00:28:19;4.70;;;3.30;;
38379;SDS011;38377;47.418;18.882;2023-07-20T00:30:45;5.90;;;3.50;;
38379;SDS011;38377;47.418;18.882;2023-07-20T00:33:11;6.10;;;3.50;;
38379;SDS011;38377;47.418;18.882;2023-07-20T00:35:40;5.90;;;3.45;;
38379;SDS011;38377;47.418;18.882;2023-07-20T00:38:05;5.13;;;3.22;;
38379;SDS011;38377;47.418;18.882;2023-07-20T00:40:38;4.95;;;3.65;;
38379;SDS011;38377;47.418;18.882;2023-07-20T00:43:04;4.63;;;3.13;;
38379;SDS011;38377;47.418;18.882;2023-07-20T00:45:30;6.25;;;3.30;;
38379;SDS011;38377;47.418;18.882;2023-07-20T00:47:57;5.80;;;3.40;;
38379;SDS011;38377;47.418;18.882;2023-07-20T00:50:24;4.85;;;3.33;;
38379;SDS011;38377;47.418;18.882;2023-07-20T00:52:51;4.60;;;3.35;;
38379;SDS011;38377;47.418;18.882;2023-07-20T00:55:18;6.80;;;3.75;;
38379;SDS011;38377;47.418;18.882;2023-07-20T00:57:44;6.40;;;3.47;;
38379;SDS011;38377;47.418;18.882;2023-07-20T01:00:10;5.70;;;3.33;;
38379;SDS011;38377;47.418;18.882;2023-07-20T01:02:36;7.30;;;3.53;;
38379;SDS011;38377;47.418;18.882;2023-07-20T01:05:02;4.63;;;3.38;;
38379;SDS011;38377;47.418;18.882;2023-07-20T01:12:23;4.85;;;2.78;;
38379;SDS011;38377;47.418;18.882;2023-07-20T01:14:50;5.05;;;3.40;;
38379;SDS011;38377;47.418;18.882;2023-07-20T01:17:19;8.45;;;3.65;;
38379;SDS011;38377;47.418;18.882;2023-07-20T01:19:45;6.13;;;3.45;;
38379;SDS011;38377;47.418;18.882;2023-07-20T01:30:56;5.68;;;4.15;;
38379;SDS011;38377;47.418;18.882;2023-07-20T01:33:42;8.73;;;3.30;;
38379;SDS011;38377;47.418;18.882;2023-07-20T01:36:09;7.38;;;3.72;;
38379;SDS011;38377;47.418;18.882;2023-07-20T01:38:36;6.13;;;3.20;;
38379;SDS011;38377;47.418;18.882;2023-07-20T01:41:02;5.05;;;3.22;;
38379;SDS011;38377;47.418;18.882;2023-07-20T01:43:29;7.30;;;4.03;;
38379;SDS011;38377;47.418;18.882;2023-07-20T01:45:54;5.18;;;3.40;;
38379;SDS011;38377;47.418;18.882;2023-07-20T01:48:20;5.80;;;3.63;;
38379;SDS011;38377;47.418;18.882;2023-07-20T01:50:46;6.70;;;3.50;;
38379;SDS011;38377;47.418;18.882;2023-07-20T01:53:12;5.65;;;3.35;;
38379;SDS011;38377;47.418;18.882;2023-07-20T01:55:37;5.95;;;3.63;;
38379;SDS011;38377;47.418;18.882;2023-07-20T01:58:03;5.30;;;3.33;;
38379;SDS011;38377;47.418;18.882;2023-07-20T02:00:29;6.95;;;3.80;;
38379;SDS011;38377;47.418;18.882;2023-07-20T02:02:55;5.90;;;3.63;;
38379;SDS011;38377;47.418;18.882;2023-07-20T02:05:21;6.88;;;3.30;;
38379;SDS011;38377;47.418;18.882;2023-07-20T02:07:46;7.78;;;3.65;;
38379;SDS011;38377;47.418;18.882;2023-07-20T02:10:12;7.35;;;3.80;;
38379;SDS011;38377;47.418;18.882;2023-07-20T02:12:38;6.80;;;3.83;;
38379;SDS011;38377;47.418;18.882;2023-07-20T02:15:03;5.03;;;3.20;;
38379;SDS011;38377;47.418;18.882;2023-07-20T02:17:29;5.97;;;3.22;;
38379;SDS011;38377;47.418;18.882;2023-07-20T02:19:55;4.45;;;3.53;;
38379;SDS011;38377;47.418;18.882;2023-07-20T02:22:22;5.93;;;3.35;;
38379;SDS011;38377;47.418;18.882;2023-07-20T02:24:48;6.13;;;3.22;;
38379;SDS011;38377;47.418;18.882;2023-07-20T02:27:15;6.55;;;3.60;;
38379;SDS011;38377;47.418;18.882;2023-07-20T02:29:41;6.40;;;3.50;;
38379;SDS011;38377;47.418;18.882;2023-07-20T02:32:07;4.85;;;3.15;;
38379;SDS011;38377;47.418;18.882;2023-07-20T02:34:35;4.82;;;3.28;;
38379;SDS011;38377;47.418;18.882;2023-07-20T02:37:01;5.60;;;3.65;;
38379;SDS011;38377;47.418;18.882;2023-07-20T02:39:27;6.43;;;3.75;;
38379;SDS011;38377;47.418;18.882;2023-07-20T02:41:53;5.97;;;3.35;;
38379;SDS011;38377;47.418;18.882;2023-07-20T02:44:19;6.47;;;3.65;;
38379;SDS011;38377;47.418;18.882;2023-07-20T02:46:45;6.03;;;3.70;;
38379;SDS011;38377;47.418;18.882;2023-07-20T02:49:11;4.70;;;3.00;;
38379;SDS011;38377;47.418;18.882;2023-07-20T02:51:37;5.82;;;3.30;;
38379;SDS011;38377;47.418;18.882;2023-07-20T02:54:03;4.60;;;3.65;;
38379;SDS011;38377;47.418;18.882;2023-07-20T02:56:28;6.97;;;3.70;;
38379;SDS011;38377;47.418;18.882;2023-07-20T02:58:54;6.18;;;3.92;;
38379;SDS011;38377;47.418;18.882;2023-07-20T03:01:20;6.38;;;3.72;;
38379;SDS011;38377;47.418;18.882;2023-07-20T03:03:46;6.38;;;3.47;;
38379;SDS011;38377;47.418;18.882;2023-07-20T03:06:15;7.35;;;3.60;;
38379;SDS011;38377;47.418;18.882;2023-07-20T03:08:42;5.22;;;3.58;;
38379;SDS011;38377;47.418;18.882;2023-07-20T03:11:15;4.45;;;3.53;;
38379;SDS011;38377;47.418;18.882;2023-07-20T03:13:41;7.45;;;3.80;;
38379;SDS011;38377;47.418;18.882;2023-07-20T03:16:08;6.00;;;3.45;;
38379;SDS011;38377;47.418;18.882;2023-07-20T03:18:39;8.40;;;4.03;;
38379;SDS011;38377;47.418;18.882;2023-07-20T03:21:05;7.65;;;4.25;;
38379;SDS011;38377;47.418;18.882;2023-07-20T03:23:32;6.03;;;3.00;;
38379;SDS011;38377;47.418;18.882;2023-07-20T03:25:58;6.22;;;3.38;;
38379;SDS011;38377;47.418;18.882;2023-07-20T03:28:23;4.15;;;3.42;;
38379;SDS011;38377;47.418;18.882;2023-07-20T03:30:53;7.70;;;3.60;;
38379;SDS011;38377;47.418;18.882;2023-07-20T03:33:21;5.90;;;3.90;;
38379;SDS011;38377;47.418;18.882;2023-07-20T03:35:47;5.70;;;3.17;;
38379;SDS011;38377;47.418;18.882;2023-07-20T03:38:12;6.20;;;3.13;;
38379;SDS011;38377;47.418;18.882;2023-07-20T03:40:38;6.25;;;3.20;;
38379;SDS011;38377;47.418;18.882;2023-07-20T03:43:04;6.57;;;3.53;;
38379;SDS011;38377;47.418;18.882;2023-07-20T03:45:29;5.32;;;2.90;;
38379;SDS011;38377;47.418;18.882;2023-07-20T03:47:55;4.25;;;3.10;;
38379;SDS011;38377;47.418;18.882;2023-07-20T03:50:21;7.43;;;3.15;;
38379;SDS011;38377;47.418;18.882;2023-07-20T03:52:47;3.90;;;2.70;;
38379;SDS011;38377;47.418;18.882;2023-07-20T03:55:12;4.68;;;3.70;;
38379;SDS011;38377;47.418;18.882;2023-07-20T03:57:38;6.78;;;3.13;;
38379;SDS011;38377;47.418;18.882;2023-07-20T04:00:04;5.78;;;2.90;;
38379;SDS011;38377;47.418;18.882;2023-07-20T04:02:32;5.07;;;3.10;;
38379;SDS011;38377;47.418;18.882;2023-07-20T04:04:58;6.15;;;3.00;;
38379;SDS011;38377;47.418;18.882;2023-07-20T04:07:24;4.95;;;3.20;;
38379;SDS011;38377;47.418;18.882;2023-07-20T04:09:49;5.25;;;3.42;;
38379;SDS011;38377;47.418;18.882;2023-07-20T04:12:15;4.57;;;3.20;;
38379;SDS011;38377;47.418;18.882;2023-07-20T04:14:41;9.43;;;3.80;;
38379;SDS011;38377;47.418;18.882;2023-07-20T04:17:07;5.80;;;3.42;;
38379;SDS011;38377;47.418;18.882;2023-07-20T04:19:33;7.03;;;3.42;;
38379;SDS011;38377;47.418;18.882;2023-07-20T04:21:59;4.10;;;2.97;;
38379;SDS011;38377;47.418;18.882;2023-07-20T04:24:24;7.85;;;3.22;;
38379;SDS011;38377;47.418;18.882;2023-07-20T04:26:50;6.72;;;3.22;;
38379;SDS011;38377;47.418;18.882;2023-07-20T04:29:15;6.22;;;3.60;;
38379;SDS011;38377;47.418;18.882;2023-07-20T04:31:41;5.93;;;3.22;;
38379;SDS011;38377;47.418;18.882;2023-07-20T04:34:07;4.53;;;3.22;;
38379;SDS011;38377;47.418;18.882;2023-07-20T04:36:32;4.20;;;3.00;;
38379;SDS011;38377;47.418;18.882;2023-07-20T04:38:58;8.27;;;3.70;;
38379;SDS011;38377;47.418;18.882;2023-07-20T04:41:24;5.70;;;3.45;;
38379;SDS011;38377;47.418;18.882;2023-07-20T04:43:50;6.20;;;3.35;;
38379;SDS011;38377;47.418;18.882;2023-07-20T04:46:15;7.47;;;3.15;;
38379;SDS011;38377;47.418;18.882;2023-07-20T04:48:43;5.50;;;3.15;;
38379;SDS011;38377;47.418;18.882;2023-07-20T04:51:08;5.90;;;3.50;;
38379;SDS011;38377;47.418;18.882;2023-07-20T04:53:35;4.00;;;3.05;;
38379;SDS011;38377;47.418;18.882;2023-07-20T04:56:01;4.50;;;3.10;;
38379;SDS011;38377;47.418;18.882;2023-07-20T04:58:26;5.13;;;3.50;;
38379;SDS011;38377;47.418;18.882;2023-07-20T05:00:53;7.20;;;3.13;;
38379;SDS011;38377;47.418;18.882;2023-07-20T05:03:18;6.30;;;3.90;;
38379;SDS011;38377;47.418;18.882;2023-07-20T05:05:44;5.53;;;3.05;;
38379;SDS011;38377;47.418;18.882;2023-07-20T05:08:11;5.75;;;3.45;;
38379;SDS011;38377;47.418;18.882;2023-07-20T05:10:37;5.63;;;3.42;;
38379;SDS011;38377;47.418;18.882;2023-07-20T05:13:02;6.25;;;3.92;;
38379;SDS011;38377;47.418;18.882;2023-07-20T05:15:28;7.13;;;3.30;;
38379;SDS011;38377;47.418;18.882;2023-07-20T05:17:54;6.03;;;3.40;;
38379;SDS011;38377;47.418;18.882;2023-07-20T05:20:19;8.55;;;4.03;;
38379;SDS011;38377;47.418;18.882;2023-07-20T05:22:46;5.07;;;3.50;;
38379;SDS011;38377;47.418;18.882;2023-07-20T05:25:20;4.88;;;3.20;;
38379;SDS011;38377;47.418;18.882;2023-07-20T05:27:49;6.10;;;3.30;;
38379;SDS011;38377;47.418;18.882;2023-07-20T05:30:15;8.35;;;4.07;;
38379;SDS011;38377;47.418;18.882;2023-07-20T05:32:41;4.85;;;3.50;;
38379;SDS011;38377;47.418;18.882;2023-07-20T05:35:07;6.53;;;3.17;;
38379;SDS011;38377;47.418;18.882;2023-07-20T05:37:33;5.00;;;3.40;;
38379;SDS011;38377;47.418;18.882;2023-07-20T05:39:59;4.68;;;3.58;;
38379;SDS011;38377;47.418;18.882;2023-07-20T05:42:25;4.70;;;3.58;;
38379;SDS011;38377;47.418;18.882;2023-07-20T05:44:50;6.25;;;3.50;;
38379;SDS011;38377;47.418;18.882;2023-07-20T05:47:18;7.47;;;3.60;;
38379;SDS011;38377;47.418;18.882;2023-07-20T05:49:43;4.18;;;3.15;;
38379;SDS011;38377;47.418;18.882;2023-07-20T05:52:09;6.32;;;3.72;;
38379;SDS011;38377;47.418;18.882;2023-07-20T05:54:35;5.03;;;3.50;;
38379;SDS011;38377;47.418;18.882;2023-07-20T05:57:00;4.70;;;3.53;;
38379;SDS011;38377;47.418;18.882;2023-07-20T05:59:27;5.50;;;3.60;;
38379;SDS011;38377;47.418;18.882;2023-07-20T06:01:54;11.45;;;4.30;;
38379;SDS011;38377;47.418;18.882;2023-07-20T06:04:20;5.13;;;3.83;;
38379;SDS011;38377;47.418;18.882;2023-07-20T06:06:46;5.38;;;3.78;;
38379;SDS011;38377;47.418;18.882;2023-07-20T06:09:11;5.18;;;3.95;;
38379;SDS011;38377;47.418;18.882;2023-07-20T06:11:38;10.00;;;4.18;;
38379;SDS011;38377;47.418;18.882;2023-07-20T06:14:04;5.93;;;3.65;;
38379;SDS011;38377;47.418;18.882;2023-07-20T06:16:30;5.28;;;3.95;;
38379;SDS011;38377;47.418;18.882;2023-07-20T06:18:55;5.10;;;3.65;;
38379;SDS011;38377;47.418;18.882;2023-07-20T06:21:21;4.63;;;3.67;;
38379;SDS011;38377;47.418;18.882;2023-07-20T06:23:47;6.28;;;3.88;;
38379;SDS011;38377;47.418;18.882;2023-07-20T06:26:22;4.20;;;3.63;;
38379;SDS011;38377;47.418;18.882;2023-07-20T06:28:54;17.15;;;4.78;;
38379;SDS011;38377;47.418;18.882;2023-07-20T06:31:21;5.38;;;3.92;;
38379;SDS011;38377;47.418;18.882;2023-07-20T06:33:46;10.98;;;3.90;;
38379;SDS011;38377;47.418;18.882;2023-07-20T06:36:12;5.35;;;4.20;;
38379;SDS011;38377;47.418;18.882;2023-07-20T06:38:38;13.32;;;4.57;;
38379;SDS011;38377;47.418;18.882;2023-07-20T06:41:04;6.55;;;3.78;;
38379;SDS011;38377;47.418;18.882;2023-07-20T06:43:29;7.22;;;4.13;;
38379;SDS011;38377;47.418;18.882;2023-07-20T06:45:55;8.43;;;3.63;;
38379;SDS011;38377;47.418;18.882;2023-07-20T06:48:21;5.10;;;3.92;;
38379;SDS011;38377;47.418;18.882;2023-07-20T06:50:47;9.75;;;4.18;;
38379;SDS011;38377;47.418;18.882;2023-07-20T06:53:12;5.25;;;3.40;;
38379;SDS011;38377;47.418;18.882;2023-07-20T06:55:38;5.70;;;3.78;;
38379;SDS011;38377;47.418;18.882;2023-07-20T06:58:04;6.75;;;4.18;;
38379;SDS011;38377;47.418;18.882;2023-07-20T07:00:30;4.85;;;3.90;;
38379;SDS011;38377;47.418;18.882;2023-07-20T07:02:55;4.38;;;3.03;;
38379;SDS011;38377;47.418;18.882;2023-07-20T07:05:21;4.63;;;3.35;;
38379;SDS011;38377;47.418;18.882;2023-07-20T07:07:47;10.52;;;3.72;;
38379;SDS011;38377;47.418;18.882;2023-07-20T07:10:13;6.57;;;3.35;;
38379;SDS011;38377;47.418;18.882;2023-07-20T07:12:38;5.07;;;2.80;;
38379;SDS011;38377;47.418;18.882;2023-07-20T07:15:04;5.60;;;2.85;;
38379;SDS011;38377;47.418;18.882;2023-07-20T07:17:35;4.43;;;2.95;;
38379;SDS011;38377;47.418;18.882;2023-07-20T07:20:01;5.38;;;3.10;;
38379;SDS011;38377;47.418;18.882;2023-07-20T07:22:28;5.53;;;3.25;;
38379;SDS011;38377;47.418;18.882;2023-07-20T07:24:54;3.88;;;3.05;;
38379;SDS011;38377;47.418;18.882;2023-07-20T07:27:20;4.30;;;2.90;;
38379;SDS011;38377;47.418;18.882;2023-07-20T07:29:45;5.30;;;3.00;;
38379;SDS011;38377;47.418;18.882;2023-07-20T07:32:11;5.97;;;3.30;;
38379;SDS011;38377;47.418;18.882;2023-07-20T07:34:37;4.72;;;2.97;;
38379;SDS011;38377;47.418;18.882;2023-07-20T07:37:06;3.72;;;2.70;;
38379;SDS011;38377;47.418;18.882;2023-07-20T07:39:32;3.83;;;2.60;;
38379;SDS011;38377;47.418;18.882;2023-07-20T07:41:58;4.57;;;2.97;;
38379;SDS011;38377;47.418;18.882;2023-07-20T07:44:24;5.30;;;3.25;;
38379;SDS011;38377;47.418;18.882;2023-07-20T07:46:49;5.10;;;2.80;;
38379;SDS011;38377;47.418;18.882;2023-07-20T07:49:16;3.65;;;2.90;;
38379;SDS011;38377;47.418;18.882;2023-07-20T07:51:43;7.38;;;2.75;;
38379;SDS011;38377;47.418;18.882;2023-07-20T07:54:09;5.78;;;2.63;;
38379;SDS011;38377;47.418;18.882;2023-07-20T07:56:34;5.10;;;2.90;;
38379;SDS011;38377;47.418;18.882;2023-07-20T07:59:00;4.65;;;2.53;;
38379;SDS011;38377;47.418;18.882;2023-07-20T08:01:26;3.58;;;2.47;;
38379;SDS011;38377;47.418;18.882;2023-07-20T08:03:52;3.60;;;2.72;;
38379;SDS011;38377;47.418;18.882;2023-07-20T08:06:17;3.83;;;2.78;;
38379;SDS011;38377;47.418;18.882;2023-07-20T08:08:43;7.47;;;2.80;;
38379;SDS011;38377;47.418;18.882;2023-07-20T08:11:08;4.47;;;2.80;;
38379;SDS011;38377;47.418;18.882;2023-07-20T08:13:35;4.93;;;3.30;;
38379;SDS011;38377;47.418;18.882;2023-07-20T08:16:01;4.03;;;2.88;;
38379;SDS011;38377;47.418;18.882;2023-07-20T08:18:29;4.07;;;2.90;;
38379;SDS011;38377;47.418;18.882;2023-07-20T08:20:56;8.02;;;3.03;;
38379;SDS011;38377;47.418;18.882;2023-07-20T08:23:22;4.10;;;3.05;;
38379;SDS011;38377;47.418;18.882;2023-07-20T08:25:48;4.20;;;2.67;;
38379;SDS011;38377;47.418;18.882;2023-07-20T08:28:13;3.65;;;2.63;;
38379;SDS011;38377;47.418;18.882;2023-07-20T08:30:44;6.53;;;2.65;;
38379;SDS011;38377;47.418;18.882;2023-07-20T08:33:12;3.20;;;2.80;;
38379;SDS011;38377;47.418;18.882;2023-07-20T08:35:38;6.30;;;2.33;;
38379;SDS011;38377;47.418;18.882;2023-07-20T08:38:04;7.28;;;2.85;;
38379;SDS011;38377;47.418;18.882;2023-07-20T08:40:33;5.72;;;3.20;;
38379;SDS011;38377;47.418;18.882;2023-07-20T08:43:04;4.80;;;2.65;;
38379;SDS011;38377;47.418;18.882;2023-07-20T08:45:30;3.33;;;2.55;;
38379;SDS011;38377;47.418;18.882;2023-07-20T08:47:59;3.78;;;2.28;;
38379;SDS011;38377;47.418;18.882;2023-07-20T08:50:28;3.88;;;1.90;;
38379;SDS011;38377;47.418;18.882;2023-07-20T08:52:56;5.78;;;2.92;;
38379;SDS011;38377;47.418;18.882;2023-07-20T08:55:23;4.47;;;2.20;;
38379;SDS011;38377;47.418;18.882;2023-07-20T08:57:51;4.72;;;2.33;;
38379;SDS011;38377;47.418;18.882;2023-07-20T09:00:19;6.30;;;2.75;;
38379;SDS011;38377;47.418;18.882;2023-07-20T09:02:47;6.63;;;2.38;;
38379;SDS011;38377;47.418;18.882;2023-07-20T09:05:18;3.70;;;2.22;;
38379;SDS011;38377;47.418;18.882;2023-07-20T09:07:48;3.60;;;2.17;;
38379;SDS011;38377;47.418;18.882;2023-07-20T09:10:13;5.03;;;2.13;;
38379;SDS011;38377;47.418;18.882;2023-07-20T09:12:40;4.65;;;2.13;;
38379;SDS011;38377;47.418;18.882;2023-07-20T09:15:07;4.10;;;1.95;;
38379;SDS011;38377;47.418;18.882;2023-07-20T09:17:34;3.53;;;2.40;;
38379;SDS011;38377;47.418;18.882;2023-07-20T09:20:03;5.40;;;2.45;;
38379;SDS011;38377;47.418;18.882;2023-07-20T09:22:33;2.63;;;2.10;;
38379;SDS011;38377;47.418;18.882;2023-07-20T09:24:59;3.65;;;2.20;;
38379;SDS011;38377;47.418;18.882;2023-07-20T09:27:35;3.22;;;2.28;;
38379;SDS011;38377;47.418;18.882;2023-07-20T09:30:02;5.70;;;2.35;;
38379;SDS011;38377;47.418;18.882;2023-07-20T09:32:29;6.63;;;2.40;;
38379;SDS011;38377;47.418;18.882;2023-07-20T09:34:54;3.15;;;2.50;;
38379;SDS011;38377;47.418;18.882;2023-07-20T09:37:20;4.15;;;1.83;;
38379;SDS011;38377;47.418;18.882;2023-07-20T09:39:47;5.10;;;2.22;;
38379;SDS011;38377;47.418;18.882;2023-07-20T09:42:14;3.45;;;2.13;;
38379;SDS011;38377;47.418;18.882;2023-07-20T09:44:42;2.67;;;2.10;;
38379;SDS011;38377;47.418;18.882;2023-07-20T09:47:09;3.72;;;2.10;;
38379;SDS011;38377;47.418;18.882;2023-07-20T09:49:41;3.25;;;2.20;;
38379;SDS011;38377;47.418;18.882;2023-07-20T09:52:10;6.22;;;2.60;;
38379;SDS011;38377;47.418;18.882;2023-07-20T09:57:07;3.47;;;2.33;;
38379;SDS011;38377;47.418;18.882;2023-07-20T09:59:37;4.50;;;2.00;;
38379;SDS011;38377;47.418;18.882;2023-07-20T10:02:04;4.47;;;2.28;;
38379;SDS011;38377;47.418;18.882;2023-07-20T10:04:36;3.90;;;2.38;;
38379;SDS011;38377;47.418;18.882;2023-07-20T10:07:03;4.97;;;2.45;;
38379;SDS011;38377;47.418;18.882;2023-07-20T10:09:33;3.50;;;2.40;;
38379;SDS011;38377;47.418;18.882;2023-07-20T10:12:04;3.08;;;2.40;;
38379;SDS011;38377;47.418;18.882;2023-07-20T10:14:31;5.75;;;2.60;;
38379;SDS011;38377;47.418;18.882;2023-07-20T10:17:03;4.90;;;2.75;;
38379;SDS011;38377;47.418;18.882;2023-07-20T10:19:34;3.15;;;2.30;;
38379;SDS011;38377;47.418;18.882;2023-07-20T10:22:17;5.43;;;2.30;;
38379;SDS011;38377;47.418;18.882;2023-07-20T10:24:47;3.25;;;2.55;;
38379;SDS011;38377;47.418;18.882;2023-07-20T10:27:14;3.88;;;2.63;;
38379;SDS011;38377;47.418;18.882;2023-07-20T10:29:40;4.68;;;2.35;;
38379;SDS011;38377;47.418;18.882;2023-07-20T10:32:07;3.58;;;2.50;;
38379;SDS011;38377;47.418;18.882;2023-07-20T10:34:34;5.72;;;2.35;;
38379;SDS011;38377;47.418;18.882;2023-07-20T10:37:00;3.88;;;2.30;;
38379;SDS011;38377;47.418;18.882;2023-07-20T10:39:30;4.68;;;2.17;;
38379;SDS011;38377;47.418;18.882;2023-07-20T10:42:00;3.75;;;2.65;;
38379;SDS011;38377;47.418;18.882;2023-07-20T10:44:28;2.92;;;2.00;;
38379;SDS011;38377;47.418;18.882;2023-07-20T10:47:01;3.05;;;2.13;;
38379;SDS011;38377;47.418;18.882;2023-07-20T10:49:28;3.55;;;1.83;;
38379;SDS011;38377;47.418;18.882;2023-07-20T10:51:57;3.88;;;2.47;;
38379;SDS011;38377;47.418;18.882;2023-07-20T10:56:54;5.88;;;2.25;;
38379;SDS011;38377;47.418;18.882;2023-07-20T11:01:49;2.58;;;2.20;;
38379;SDS011;38377;47.418;18.882;2023-07-20T11:04:37;3.55;;;1.75;;
38379;SDS011;38377;47.418;18.882;2023-07-20T11:07:04;2.78;;;1.75;;
38379;SDS011;38377;47.418;18.882;2023-07-20T11:09:34;2.78;;;1.92;;
38379;SDS011;38377;47.418;18.882;2023-07-20T11:12:14;3.90;;;2.15;;
38379;SDS011;38377;47.418;18.882;2023-07-20T11:14:41;5.80;;;2.05;;
38379;SDS011;38377;47.418;18.882;2023-07-20T11:17:22;7.28;;;2.30;;
38379;SDS011;38377;47.418;18.882;2023-07-20T11:19:57;2.10;;;1.90;;
38379;SDS011;38377;47.418;18.882;2023-07-20T11:22:28;8.85;;;2.60;;
38379;SDS011;38377;47.418;18.882;2023-07-20T11:24:56;4.40;;;2.10;;
38379;SDS011;38377;47.418;18.882;2023-07-20T11:27:23;6.55;;;2.00;;
38379;SDS011;38377;47.418;18.882;2023-07-20T11:29:48;3.47;;;2.05;;
38379;SDS011;38377;47.418;18.882;2023-07-20T11:32:22;2.75;;;1.83;;
38379;SDS011;38377;47.418;18.882;2023-07-20T11:34:48;4.25;;;1.85;;
38379;SDS011;38377;47.418;18.882;2023-07-20T11:37:15;3.75;;;2.10;;
38379;SDS011;38377;47.418;18.882;2023-07-20T11:39:41;3.53;;;2.13;;
38379;SDS011;38377;47.418;18.882;2023-07-20T11:42:06;6.10;;;1.90;;
38379;SDS011;38377;47.418;18.882;2023-07-20T11:44:33;4.65;;;2.00;;
38379;SDS011;38377;47.418;18.882;2023-07-20T11:46:59;3.22;;;2.15;;
38379;SDS011;38377;47.418;18.882;2023-07-20T11:49:27;4.15;;;2.10;;
38379;SDS011;38377;47.418;18.882;2023-07-20T11:51:53;5.30;;;2.05;;
38379;SDS011;38377;47.418;18.882;2023-07-20T11:54:20;2.85;;;1.80;;
38379;SDS011;38377;47.418;18.882;2023-07-20T11:56:46;4.90;;;2.40;;
38379;SDS011;38377;47.418;18.882;2023-07-20T11:59:12;7.72;;;1.88;;
38379;SDS011;38377;47.418;18.882;2023-07-20T12:01:37;9.68;;;2.88;;
38379;SDS011;38377;47.418;18.882;2023-07-20T12:04:03;6.35;;;2.00;;
38379;SDS011;38377;47.418;18.882;2023-07-20T12:06:29;2.83;;;1.80;;
38379;SDS011;38377;47.418;18.882;2023-07-20T12:08:56;5.57;;;1.67;;
38379;SDS011;38377;47.418;18.882;2023-07-20T12:11:36;3.83;;;2.20;;
38379;SDS011;38377;47.418;18.882;2023-07-20T12:14:03;3.35;;;1.98;;
38379;SDS011;38377;47.418;18.882;2023-07-20T12:16:32;3.00;;;1.80;;
38379;SDS011;38377;47.418;18.882;2023-07-20T12:19:11;2.55;;;1.70;;
38379;SDS011;38377;47.418;18.882;2023-07-20T12:21:38;4.40;;;1.80;;
38379;SDS011;38377;47.418;18.882;2023-07-20T12:24:06;4.18;;;1.80;;
38379;SDS011;38377;47.418;18.882;2023-07-20T12:26:34;2.55;;;1.55;;
38379;SDS011;38377;47.418;18.882;2023-07-20T12:29:00;4.65;;;2.00;;
38379;SDS011;38377;47.418;18.882;2023-07-20T12:31:26;2.03;;;1.80;;
38379;SDS011;38377;47.418;18.882;2023-07-20T12:33:52;3.10;;;1.63;;
38379;SDS011;38377;47.418;18.882;2023-07-20T12:36:20;3.55;;;2.45;;
38379;SDS011;38377;47.418;18.882;2023-07-20T12:38:46;3.55;;;1.83;;
38379;SDS011;38377;47.418;18.882;2023-07-20T12:41:12;4.60;;;1.92;;
38379;SDS011;38377;47.418;18.882;2023-07-20T12:43:38;2.58;;;2.00;;
38379;SDS011;38377;47.418;18.882;2023-07-20T12:46:08;2.17;;;1.88;;
38379;SDS011;38377;47.418;18.882;2023-07-20T12:48:35;2.08;;;1.70;;
38379;SDS011;38377;47.418;18.882;2023-07-20T12:51:06;4.15;;;2.22;;
38379;SDS011;38377;47.418;18.882;2023-07-20T12:53:33;4.57;;;2.10;;
38379;SDS011;38377;47.418;18.882;2023-07-20T12:55:59;4.82;;;2.10;;
38379;SDS011;38377;47.418;18.882;2023-07-20T12:58:25;4.05;;;1.70;;
38379;SDS011;38377;47.418;18.882;2023-07-20T13:00:51;2.88;;;1.55;;
38379;SDS011;38377;47.418;18.882;2023-07-20T13:03:17;2.92;;;1.30;;
38379;SDS011;38377;47.418;18.882;2023-07-20T13:05:44;2.42;;;2.05;;
38379;SDS011;38377;47.418;18.882;2023-07-20T13:08:13;2.65;;;1.67;;
38379;SDS011;38377;47.418;18.882;2023-07-20T13:10:40;2.40;;;1.60;;
38379;SDS011;38377;47.418;18.882;2023-07-20T13:13:06;2.33;;;1.40;;
38379;SDS011;38377;47.418;18.882;2023-07-20T13:15:32;1.60;;;1.35;;
38379;SDS011;38377;47.418;18.882;2023-07-20T13:18:06;3.00;;;1.75;;
38379;SDS011;38377;47.418;18.882;2023-07-20T13:20:33;3.13;;;1.50;;
38379;SDS011;38377;47.418;18.882;2023-07-20T13:22:59;5.18;;;1.65;;
38379;SDS011;38377;47.418;18.882;2023-07-20T13:25:28;3.67;;;1.60;;
38379;SDS011;38377;47.418;18.882;2023-07-20T13:27:54;3.22;;;1.60;;
38379;SDS011;38377;47.418;18.882;2023-07-20T13:30:19;4.22;;;1.65;;
38379;SDS011;38377;47.418;18.882;2023-07-20T13:32:46;2.45;;;1.50;;
38379;SDS011;38377;47.418;18.882;2023-07-20T13:35:12;2.88;;;1.48;;
38379;SDS011;38377;47.418;18.882;2023-07-20T13:37:38;2.97;;;1.75;;
38379;SDS011;38377;47.418;18.882;2023-07-20T13:40:04;3.65;;;1.55;;
38379;SDS011;38377;47.418;18.882;2023-07-20T13:42:31;10.35;;;1.80;;
38379;SDS011;38377;47.418;18.882;2023-07-20T13:44:57;2.50;;;1.40;;
38379;SDS011;38377;47.418;18.882;2023-07-20T13:47:23;2.28;;;1.50;;
38379;SDS011;38377;47.418;18.882;2023-07-20T13:49:49;2.60;;;1.40;;
38379;SDS011;38377;47.418;18.882;2023-07-20T13:52:14;7.38;;;1.73;;
38379;SDS011;38377;47.418;18.882;2023-07-20T13:54:40;3.55;;;1.52;;
38379;SDS011;38377;47.418;18.882;2023-07-20T13:57:06;2.28;;;1.33;;
38379;SDS011;38377;47.418;18.882;2023-07-20T13:59:32;3.75;;;2.33;;
38379;SDS011;38377;47.418;18.882;2023-07-20T14:01:57;11.75;;;2.38;;
38379;SDS011;38377;47.418;18.882;2023-07-20T14:04:23;2.38;;;1.58;;
38379;SDS011;38377;47.418;18.882;2023-07-20T14:06:49;2.83;;;1.77;;
38379;SDS011;38377;47.418;18.882;2023-07-20T14:09:16;2.30;;;1.48;;
38379;SDS011;38377;47.418;18.882;2023-07-20T14:11:42;6.65;;;1.90;;
38379;SDS011;38377;47.418;18.882;2023-07-20T14:14:07;5.57;;;1.98;;
38379;SDS011;38377;47.418;18.882;2023-07-20T14:16:33;2.33;;;1.70;;
38379;SDS011;38377;47.418;18.882;2023-07-20T14:18:58;4.35;;;2.00;;
38379;SDS011;38377;47.418;18.882;2023-07-20T14:21:24;1.98;;;1.38;;
38379;SDS011;38377;47.418;18.882;2023-07-20T14:23:51;2.42;;;1.60;;
38379;SDS011;38377;47.418;18.882;2023-07-20T14:26:20;4.63;;;2.38;;
38379;SDS011;38377;47.418;18.882;2023-07-20T14:28:46;4.28;;;1.77;;
38379;SDS011;38377;47.418;18.882;2023-07-20T14:31:11;6.50;;;2.20;;
38379;SDS011;38377;47.418;18.882;2023-07-20T14:33:38;3.17;;;1.80;;
38379;SDS011;38377;47.418;18.882;2023-07-20T14:36:04;1.95;;;1.63;;
38379;SDS011;38377;47.418;18.882;2023-07-20T14:38:33;4.65;;;1.85;;
38379;SDS011;38377;47.418;18.882;2023-07-20T14:41:00;2.03;;;1.27;;
38379;SDS011;38377;47.418;18.882;2023-07-20T14:43:26;2.65;;;1.55;;
38379;SDS011;38377;47.418;18.882;2023-07-20T14:45:52;4.07;;;1.77;;
38379;SDS011;38377;47.418;18.882;2023-07-20T14:48:19;2.85;;;2.22;;
38379;SDS011;38377;47.418;18.882;2023-07-20T14:50:46;2.35;;;1.92;;
38379;SDS011;38377;47.418;18.882;2023-07-20T14:53:15;4.18;;;1.67;;